Fort Abbas Weather



Fort Abbas's Current Weather

Temprature 40.02o overcast clouds

overcast clouds

Rain: 0 %

Min Temprature40.02o
Max Temprature40.02o
Humidity12
Wind Speed4.51 m/h
Sun Rise05:21:28
Sun Set18:48:41
Current Time: 08-May-2021 15:55:30
Lat/Lon: 29.1925, 72.8536




Fort Abbas's Geo Location



Fort Abbas's Weather Forecast

Time Overall Temp Min Temp Max Temp Humidity Wind Speed Rain
08-May-2021 (Sat)
17:00:00 overcast clouds 39.730 39.730 39.730 12 4.54 m/h 0 %
20:00:00 overcast clouds 37.020 31.600 37.020 17 6.5 m/h 0 %
23:00:00 overcast clouds 35.140 32.840 35.140 20 5.19 m/h 0 %
09-May-2021 (Sun)
02:00:00 broken clouds 31.120 31.120 31.120 24 3.08 m/h 0 %
05:00:00 overcast clouds 30.010 30.010 30.010 26 3.03 m/h 0 %
08:00:00 clear sky 34.800 34.800 34.800 19 5.83 m/h 0 %
11:00:00 clear sky 40.040 40.040 40.040 12 4.37 m/h 0 %
14:00:00 clear sky 41.740 41.740 41.740 10 3.07 m/h 0 %
17:00:00 few clouds 41.630 41.630 41.630 9 4.09 m/h 0 %
20:00:00 scattered clouds 37.020 37.020 37.020 12 0.7 m/h 0 %
23:00:00 light rain 33.510 33.510 33.510 20 4.93 m/h 20 %
10-May-2021 (Mon)
02:00:00 clear sky 32.000 32.000 32.000 23 5.33 m/h 0 %
05:00:00 clear sky 31.240 31.240 31.240 24 4.2 m/h 0 %
08:00:00 clear sky 34.840 34.840 34.840 23 5.41 m/h 0 %
11:00:00 clear sky 40.210 40.210 40.210 16 4.68 m/h 0 %
14:00:00 few clouds 42.650 42.650 42.650 10 4.94 m/h 0 %
17:00:00 few clouds 42.260 42.260 42.260 9 3.92 m/h 0 %
20:00:00 light rain 32.830 32.830 32.830 25 7.73 m/h 60 %
23:00:00 broken clouds 32.480 32.480 32.480 28 10.22 m/h 0 %
11-May-2021 (Tue)
02:00:00 scattered clouds 32.160 32.160 32.160 27 4.93 m/h 0 %
05:00:00 broken clouds 30.350 30.350 30.350 34 3.57 m/h 0 %
08:00:00 scattered clouds 34.270 34.270 34.270 31 6.15 m/h 0 %
11:00:00 scattered clouds 39.510 39.510 39.510 21 5.66 m/h 0 %
14:00:00 clear sky 42.390 42.390 42.390 14 4.88 m/h 0 %
17:00:00 few clouds 41.570 41.570 41.570 13 5.73 m/h 0 %
20:00:00 light rain 30.550 30.550 30.550 35 8.61 m/h 151 %
23:00:00 light rain 31.470 31.470 31.470 35 8.59 m/h 208 %
12-May-2021 (Wed)
02:00:00 light rain 30.960 30.960 30.960 33 8.26 m/h 14 %
05:00:00 overcast clouds 30.030 30.030 30.030 40 6.01 m/h 0 %
08:00:00 overcast clouds 32.410 32.410 32.410 33 4.85 m/h 0 %
11:00:00 broken clouds 35.830 35.830 35.830 25 5.14 m/h 0 %
14:00:00 overcast clouds 38.260 38.260 38.260 20 4.66 m/h 0 %
17:00:00 broken clouds 38.210 38.210 38.210 19 6.42 m/h 0 %
20:00:00 light rain 27.290 27.290 27.290 51 14.5 m/h 107 %
23:00:00 broken clouds 27.400 27.400 27.400 53 11.53 m/h 0 %
13-May-2021 (Thu)
02:00:00 clear sky 27.800 27.800 27.800 48 6.35 m/h 0 %
05:00:00 light rain 27.740 27.740 27.740 49 5.13 m/h 61 %
08:00:00 clear sky 30.700 30.700 30.700 40 6.7 m/h 0 %
11:00:00 scattered clouds 34.660 34.660 34.660 29 3.57 m/h 0 %
14:00:00 scattered clouds 37.460 37.460 37.460 22 3.37 m/h 0 %

Famous Cities (60)